Time;durP1;ratioP1;P1;durP2;ratioP2;P2;SDS_P1;SDS_P2;PMS_P1;PMS_P2;Temp;Humidity;BMP_temperature;BMP_pressure;BME280_temperature;BME280_humidity;BME280_pressure;Samples;Min_cycle;Max_cycle;Signal;HPM_P1;HPM_P2
2021/09/26 00:01:04;;;;;;;21.90;14.32;;;18.70;99.90;;;18.11;100.00;100773.25;4166761;28;20076;-76
2021/09/26 00:03:05;;;;;;;24.33;14.85;;;18.60;99.90;;;18.09;100.00;100775.31;4168106;28;20029;-76
2021/09/26 00:05:07;;;;;;;22.73;13.38;;;18.60;99.90;;;18.20;100.00;100780.03;4166786;28;20033;-77
2021/09/26 00:07:08;;;;;;;24.23;13.88;;;18.70;99.90;;;18.18;100.00;100771.41;4166724;28;20029;-76
2021/09/26 00:09:09;;;;;;;21.42;14.15;;;18.70;99.90;;;18.30;100.00;100771.63;4166730;28;20060;-76
2021/09/26 00:11:11;;;;;;;21.35;13.25;;;18.70;99.90;;;18.31;100.00;100778.63;4157904;28;20398;-77
2021/09/26 00:13:12;;;;;;;24.48;13.25;;;18.70;99.90;;;18.31;100.00;100773.28;4151586;28;20034;-76
2021/09/26 00:15:17;;;;;;;21.88;13.48;;;18.80;99.90;;;18.31;100.00;100776.75;4151488;28;20026;-76
2021/09/26 00:17:18;;;;;;;21.35;13.25;;;18.80;99.90;;;18.34;100.00;100770.19;4151463;28;20022;-77
2021/09/26 00:19:19;;;;;;;24.00;13.15;;;18.80;99.90;;;18.28;100.00;100763.81;4150451;28;20055;-76
2021/09/26 00:21:20;;;;;;;25.67;13.30;;;18.80;99.90;;;18.25;100.00;100774.91;4150398;28;20038;-76
2021/09/26 00:23:22;;;;;;;23.40;15.35;;;18.80;99.90;;;18.28;100.00;100771.03;4150816;28;20101;-76
2021/09/26 00:25:23;;;;;;;22.95;12.88;;;18.80;99.90;;;18.26;100.00;100771.22;4137098;28;20379;-76
2021/09/26 00:27:24;;;;;;;24.58;14.07;;;18.70;99.90;;;18.28;100.00;100768.34;4153449;28;20036;-76
2021/09/26 00:29:25;;;;;;;25.30;14.32;;;18.80;99.90;;;18.20;100.00;100756.00;4154494;28;20393;-76
2021/09/26 00:31:26;;;;;;;20.40;12.80;;;18.70;99.90;;;18.20;100.00;100756.84;4152927;28;20090;-76
2021/09/26 00:33:27;;;;;;;18.60;12.73;;;18.70;99.90;;;18.16;100.00;100760.94;4153364;28;20026;-77
2021/09/26 00:35:28;;;;;;;22.13;13.18;;;18.70;99.90;;;18.20;100.00;100759.50;4153310;28;20033;-76
2021/09/26 00:37:29;;;;;;;22.27;12.85;;;18.70;99.90;;;18.22;100.00;100764.63;4154391;28;20041;-76
2021/09/26 00:39:30;;;;;;;23.35;13.13;;;18.70;99.90;;;18.21;100.00;100763.81;4152627;28;20029;-76
2021/09/26 00:41:32;;;;;;;25.13;12.65;;;18.70;99.90;;;18.22;100.00;100769.97;4153230;28;20025;-76
2021/09/26 00:43:35;;;;;;;20.85;13.07;;;18.80;99.90;;;18.22;100.00;100767.28;4160213;28;20045;-76
2021/09/26 00:45:36;;;;;;;20.95;12.38;;;18.70;99.90;;;18.21;100.00;100766.50;4155050;28;20061;-77
2021/09/26 00:47:37;;;;;;;22.27;13.20;;;18.70;99.90;;;18.18;100.00;100763.41;4153091;28;20469;-76
2021/09/26 00:49:38;;;;;;;26.00;13.30;;;18.70;99.90;;;18.21;100.00;100763.81;4159281;28;20029;-77
2021/09/26 00:51:42;;;;;;;27.27;13.73;;;18.70;99.90;;;18.18;100.00;100758.06;4143373;28;20050;-76
2021/09/26 00:53:44;;;;;;;19.98;13.27;;;18.70;99.90;;;18.17;100.00;100759.09;4165698;28;20029;-76
2021/09/26 00:55:46;;;;;;;26.48;15.05;;;18.70;99.90;;;18.21;100.00;100763.00;4169234;28;20030;-76
2021/09/26 00:57:47;;;;;;;29.83;14.30;;;18.70;99.90;;;18.17;100.00;100759.09;4169201;28;20029;-77
2021/09/26 00:59:48;;;;;;;26.02;12.85;;;18.70;99.90;;;18.12;100.00;100756.22;4169116;28;20119;-77
2021/09/26 01:01:50;;;;;;;20.90;11.43;;;18.70;99.90;;;18.10;100.00;100744.91;4152433;28;20030;-76
2021/09/26 01:03:51;;;;;;;19.95;11.63;;;18.60;99.90;;;18.10;100.00;100751.06;4169136;28;20029;-76
2021/09/26 01:06:11;;;;;;;23.52;12.13;;;18.60;99.90;;;18.20;100.00;100759.50;4169017;28;20053;-77
2021/09/26 01:09:15;;;;;;;21.98;12.52;;;18.60;99.90;;;18.21;100.00;100771.84;4169112;28;20036;-76
2021/09/26 01:11:35;;;;;;;20.92;11.55;;;18.60;99.90;;;18.24;100.00;100770.59;4152085;28;20052;-75
2021/09/26 01:13:56;;;;;;;20.67;11.52;;;18.70;99.90;;;18.22;100.00;100775.31;4151608;28;20530;-77
2021/09/26 01:16:12;;;;;;;20.08;11.40;;;18.70;99.90;;;18.18;100.00;100782.09;4152250;28;20037;-76
2021/09/26 01:18:46;;;;;;;21.17;12.43;;;18.70;99.90;;;18.13;100.00;100785.38;4153669;28;20371;-76
2021/09/26 01:21:07;;;;;;;20.63;11.13;;;18.70;99.90;;;18.08;100.00;100787.00;4152640;28;20026;-76
2021/09/26 01:23:20;;;;;;;19.27;11.90;;;18.70;99.90;;;18.11;100.00;100790.09;4153603;28;20034;-76
2021/09/26 01:25:39;;;;;;;16.08;11.27;;;18.60;99.90;;;18.14;100.00;100780.84;4153737;28;20061;-76
2021/09/26 01:27:59;;;;;;;21.38;12.95;;;18.60;99.90;;;18.14;100.00;100788.88;4153607;28;20053;-77
2021/09/26 01:30:20;;;;;;;20.42;11.52;;;18.60;99.90;;;18.06;100.00;100779.22;4153630;28;20033;-76
2021/09/26 01:32:23;;;;;;;27.13;12.52;;;18.60;99.90;;;18.09;100.00;100786.00;4151878;28;20092;-76
2021/09/26 01:34:55;;;;;;;37.00;13.40;;;18.60;99.90;;;18.12;100.00;100786.41;4151977;28;20018;-76
2021/09/26 01:37:03;;;;;;;25.17;12.32;;;18.60;99.90;;;18.07;100.00;100782.72;4152419;28;20037;-76
2021/09/26 01:39:48;;;;;;;21.02;13.18;;;18.60;99.90;;;18.08;100.00;100779.00;4152211;28;20486;-76
2021/09/26 01:41:58;;;;;;;33.13;12.43;;;18.60;99.90;;;18.13;100.00;100790.72;4160931;28;20042;-76
2021/09/26 01:44:01;;;;;;;23.63;11.30;;;18.60;99.90;;;18.08;100.00;100785.16;4154534;28;20037;-76
2021/09/26 01:46:08;;;;;;;23.40;12.18;;;18.60;99.90;;;18.10;100.00;100788.44;4152045;28;20044;-76
2021/09/26 01:48:28;;;;;;;27.73;12.90;;;18.50;99.90;;;18.08;100.00;100787.84;4153339;28;20048;-76
2021/09/26 01:50:30;;;;;;;24.00;12.18;;;18.60;99.90;;;18.03;100.00;100787.63;4149840;28;20038;-77
2021/09/26 01:52:34;;;;;;;28.02;12.82;;;18.60;99.90;;;18.06;100.00;100795.25;4155944;28;20086;-76
2021/09/26 01:54:36;;;;;;;23.90;12.20;;;18.50;99.90;;;18.04;100.00;100788.47;4168430;28;20044;-76
2021/09/26 01:56:42;;;;;;;32.58;14.77;;;18.50;99.90;;;18.03;100.00;100784.13;4168345;28;20474;-75
2021/09/26 01:58:44;;;;;;;28.52;11.82;;;18.60;99.90;;;18.06;100.00;100792.56;4168218;28;20090;-76
2021/09/26 02:00:47;;;;;;;27.77;12.52;;;18.50;99.90;;;17.99;100.00;100781.03;4168121;28;20053;-76
2021/09/26 02:02:50;;;;;;;26.38;11.63;;;18.50;99.90;;;17.91;100.00;100778.56;4169498;28;20592;-76
2021/09/26 02:04:59;;;;;;;29.17;12.65;;;18.50;99.90;;;17.97;100.00;100782.28;4167999;28;20467;-76
2021/09/26 02:07:01;;;;;;;28.88;11.77;;;18.50;99.90;;;17.99;100.00;100786.38;4168340;28;20092;-75
2021/09/26 02:09:04;;;;;;;26.75;12.15;;;18.50;99.90;;;17.98;100.00;100789.28;4168095;28;20017;-77
2021/09/26 02:11:07;;;;;;;23.27;10.82;;;18.50;99.90;;;17.96;100.00;100780.63;4159609;28;20524;-76
2021/09/26 02:13:09;;;;;;;20.15;9.32;;;18.50;99.90;;;17.86;100.00;100788.22;4152862;28;20117;-76
2021/09/26 02:15:17;;;;;;;18.90;8.85;;;18.40;99.90;;;17.83;100.00;100785.97;4135423;28;20031;-76
2021/09/26 02:17:19;;;;;;;30.27;9.55;;;18.40;99.90;;;17.84;100.00;100801.75;4152648;28;20022;-76
2021/09/26 02:19:22;;;;;;;18.98;8.65;;;18.30;99.90;;;17.87;100.00;100797.84;4135301;28;20030;-76
2021/09/26 02:21:25;;;;;;;19.33;10.13;;;18.40;99.90;;;17.83;100.00;100792.09;4151705;28;20022;-76
2021/09/26 02:23:26;;;;;;;21.20;8.98;;;18.40;99.90;;;17.80;100.00;100783.69;4135245;28;20034;-76
2021/09/26 02:25:27;;;;;;;17.55;7.40;;;18.30;99.90;;;17.81;100.00;100794.16;4151407;28;20025;-76
2021/09/26 02:27:29;;;;;;;18.85;7.35;;;18.30;99.90;;;17.68;100.00;100789.59;4151597;28;20483;-76
2021/09/26 02:29:31;;;;;;;18.75;6.93;;;18.30;99.90;;;17.75;100.00;100792.28;4151519;28;20041;-76
2021/09/26 02:31:35;;;;;;;12.65;5.45;;;18.20;99.90;;;17.74;100.00;100787.16;4151296;28;20099;-77
2021/09/26 02:33:37;;;;;;;;;;;18.20;99.90;;;17.76;100.00;100785.09;4151931;28;20165;-76
2021/09/26 02:35:38;;;;;;;16.30;6.00;;;18.20;99.90;;;17.74;100.00;100792.50;4151422;28;19909;-76
2021/09/26 02:37:39;;;;;;;15.15;6.53;;;18.20;99.90;;;17.71;100.00;100793.72;4151304;28;20069;-76
2021/09/26 02:39:40;;;;;;;17.70;6.97;;;18.30;99.90;;;17.64;100.00;100788.38;4151389;28;20049;-76
2021/09/26 02:42:18;;;;;;;12.43;6.72;;;18.20;99.90;;;17.71;100.00;100787.56;4151357;28;20033;-76
2021/09/26 02:44:32;;;;;;;17.23;6.57;;;18.20;99.90;;;17.69;100.00;100785.91;4144696;28;20041;-76
2021/09/26 02:46:40;;;;;;;12.98;5.88;;;18.20;99.90;;;17.62;100.00;100779.72;4150901;28;20053;-76
2021/09/26 02:48:41;;;;;;;15.20;6.28;;;18.20;99.90;;;17.66;100.00;100775.63;4151296;28;20025;-76
2021/09/26 02:50:45;;;;;;;14.80;7.55;;;18.10;99.90;;;17.61;100.00;100783.44;4151130;28;20033;-76
2021/09/26 02:52:47;;;;;;;;;;;18.10;99.90;;;17.57;100.00;100786.69;4151594;28;20026;-76
2021/09/26 02:54:49;;;;;;;17.58;5.97;;;18.10;99.90;;;17.64;100.00;100804.38;4151240;28;20000;-76
2021/09/26 02:56:51;;;;;;;16.90;6.82;;;18.10;99.90;;;17.65;100.00;100799.88;4151088;28;20034;-76
2021/09/26 02:58:54;;;;;;;16.92;6.75;;;18.00;99.90;;;17.61;100.00;100799.44;4150907;28;20085;-76
2021/09/26 03:00:55;;;;;;;15.23;6.13;;;18.10;99.90;;;17.61;100.00;100799.44;4150920;28;20026;-76
2021/09/26 03:03:15;;;;;;;17.25;6.90;;;18.00;99.90;;;17.59;100.00;100809.47;4151010;28;20088;-76
2021/09/26 03:05:16;;;;;;;12.18;5.75;;;18.10;99.90;;;17.64;100.00;100809.72;4150822;28;20120;-76
2021/09/26 03:07:17;;;;;;;11.85;5.32;;;18.00;99.90;;;17.57;100.00;100808.84;4138904;28;20064;-76
2021/09/26 03:09:18;;;;;;;14.38;6.90;;;18.10;99.90;;;17.49;100.00;100803.66;4159521;28;20021;-76
2021/09/26 03:11:19;;;;;;;19.77;6.90;;;18.10;99.90;;;17.56;100.00;100801.06;4156811;28;20028;-76
2021/09/26 03:13:21;;;;;;;13.20;6.47;;;18.00;99.90;;;17.52;100.00;100808.59;4151975;28;20497;-76
2021/09/26 03:15:22;;;;;;;14.82;6.95;;;18.00;99.90;;;17.53;100.00;100804.09;4138557;28;20117;-76
2021/09/26 03:17:23;;;;;;;12.55;6.38;;;18.10;99.90;;;17.53;100.00;100804.91;4143763;28;20058;-76
2021/09/26 03:19:24;;;;;;;14.15;5.90;;;18.00;99.90;;;17.45;100.00;100802.41;4167394;28;20021;-75
2021/09/26 03:21:27;;;;;;;18.15;7.70;;;18.00;99.90;;;17.50;100.00;100799.97;4152020;28;20026;-75
2021/09/26 03:23:28;;;;;;;19.17;6.60;;;18.00;99.90;;;17.46;100.00;100805.91;4151074;28;20024;-75
2021/09/26 03:25:29;;;;;;;14.02;6.13;;;17.90;99.90;;;17.44;100.00;100813.28;4152149;28;20030;-75
2021/09/26 03:27:30;;;;;;;18.52;7.82;;;17.90;99.90;;;17.49;100.00;100814.34;4152108;28;20045;-75
2021/09/26 03:29:35;;;;;;;20.00;7.03;;;18.00;99.90;;;17.41;100.00;100814.50;4134460;28;20030;-75
2021/09/26 03:31:35;;;;;;;16.52;7.43;;;17.90;99.90;;;17.47;100.00;100824.34;4150745;28;20061;-75
2021/09/26 03:33:36;;;;;;;16.73;7.28;;;17.90;99.90;;;17.45;100.00;100826.41;4152128;28;20073;-75
2021/09/26 03:35:37;;;;;;;20.10;6.93;;;17.90;99.90;;;17.39;100.00;100818.38;4151040;28;20053;-75
2021/09/26 03:37:38;;;;;;;20.33;6.50;;;17.90;99.90;;;17.40;100.00;100812.88;4150819;28;20030;-75
2021/09/26 03:39:40;;;;;;;20.67;8.05;;;17.90;99.90;;;17.41;100.00;100816.34;4150987;28;20037;-75
2021/09/26 03:41:41;;;;;;;17.02;6.70;;;17.90;99.90;;;17.36;100.00;100814.28;4150977;28;20168;-75
2021/09/26 03:43:42;;;;;;;22.80;7.82;;;17.90;99.90;;;17.43;100.00;100817.78;4152083;28;20049;-75
2021/09/26 03:45:49;;;;;;;13.80;7.07;;;17.90;99.90;;;17.47;100.00;100823.56;4154125;28;20057;-75
2021/09/26 03:47:50;;;;;;;20.48;7.65;;;17.90;99.90;;;17.54;100.00;100827.06;4150955;28;20022;-75
2021/09/26 03:49:51;;;;;;;21.73;8.43;;;17.90;99.90;;;17.40;100.00;100812.88;4152039;28;20108;-75
2021/09/26 03:51:53;;;;;;;19.55;7.75;;;17.90;99.90;;;17.35;100.00;100825.16;4134316;28;20030;-75
2021/09/26 03:53:54;;;;;;;19.98;8.50;;;17.90;99.90;;;17.30;100.00;100831.06;4150721;28;20026;-75
2021/09/26 03:55:55;;;;;;;17.50;9.10;;;17.90;99.90;;;17.35;100.00;100830.47;4150661;28;20519;-75
2021/09/26 03:57:56;;;;;;;19.63;9.93;;;17.90;99.90;;;17.37;100.00;100829.25;4152063;28;20025;-75
2021/09/26 03:59:57;;;;;;;19.23;11.05;;;17.80;99.90;;;17.33;100.00;100833.31;4137494;28;20026;-75
2021/09/26 04:01:58;;;;;;;29.73;12.75;;;17.90;99.90;;;17.30;100.00;100833.72;4153549;28;20096;-75
2021/09/26 04:03:59;;;;;;;18.80;9.75;;;17.90;99.90;;;17.26;100.00;100827.16;4155248;28;20034;-75
2021/09/26 04:06:00;;;;;;;27.30;14.13;;;17.90;99.90;;;17.34;100.00;100837.66;4154963;28;20049;-75
2021/09/26 04:08:00;;;;;;;27.80;13.23;;;17.90;99.90;;;17.46;100.00;100838.75;4137522;28;20030;-74
2021/09/26 04:10:07;;;;;;;21.50;11.57;;;17.90;99.90;;;17.50;100.00;100847.97;4166914;28;20643;-75
2021/09/26 04:12:08;;;;;;;20.40;11.85;;;17.90;99.90;;;17.63;100.00;100856.06;4153613;28;20081;-75
2021/09/26 04:14:09;;;;;;;21.17;12.98;;;18.00;99.90;;;17.63;100.00;100856.06;4144411;28;20034;-75
2021/09/26 04:16:10;;;;;;;25.30;12.70;;;18.00;99.90;;;17.56;100.00;100852.53;4153518;28;20057;-75
2021/09/26 04:18:11;;;;;;;24.45;14.10;;;18.00;99.90;;;17.56;100.00;100857.09;4167025;28;20033;-75
2021/09/26 04:20:12;;;;;;;20.85;14.70;;;18.00;99.90;;;17.58;100.00;100861.19;4153487;28;20520;-75
2021/09/26 04:22:13;;;;;;;22.42;13.93;;;18.10;99.90;;;17.54;100.00;100857.25;4170063;28;20033;-75
2021/09/26 04:24:14;;;;;;;26.50;15.48;;;18.10;99.90;;;17.53;100.00;100868.13;4170021;28;20403;-75
2021/09/26 04:26:16;;;;;;;22.58;14.45;;;18.00;99.90;;;17.45;100.00;100863.75;4171064;28;20029;-75
2021/09/26 04:28:17;;;;;;;26.02;14.82;;;18.00;99.90;;;17.55;100.00;100858.91;4153411;28;20557;-75
2021/09/26 04:30:18;;;;;;;24.42;14.73;;;18.00;99.90;;;17.51;100.00;100868.28;4153296;28;20127;-75
2021/09/26 04:32:20;;;;;;;26.80;16.27;;;18.00;99.90;;;17.51;100.00;100870.97;4169857;28;20029;-75
2021/09/26 04:34:26;;;;;;;25.83;16.73;;;18.00;99.90;;;17.43;100.00;100849.81;4169768;28;20086;-75
2021/09/26 04:36:26;;;;;;;29.45;17.77;;;18.00;99.90;;;17.52;100.00;100866.47;4171124;28;20022;-75
2021/09/26 04:38:27;;;;;;;23.92;15.50;;;18.00;99.90;;;17.55;100.00;100858.09;4153226;28;20033;-75
2021/09/26 04:40:28;;;;;;;28.13;16.17;;;18.00;99.90;;;17.62;100.00;100861.63;4170967;28;20029;-75
2021/09/26 04:42:29;;;;;;;27.80;17.83;;;18.00;99.90;;;17.62;100.00;100862.41;4170913;28;20029;-75
2021/09/26 04:44:30;;;;;;;28.70;18.05;;;18.10;99.90;;;17.55;100.00;100858.09;4166227;28;20030;-75
2021/09/26 04:46:31;;;;;;;25.95;17.00;;;18.00;99.90;;;17.46;100.00;100870.75;4154245;28;20037;-75
2021/09/26 04:48:32;;;;;;;24.17;16.65;;;18.10;99.90;;;17.39;100.00;100872.53;4153247;28;20072;-75
2021/09/26 04:50:34;;;;;;;24.33;15.30;;;18.00;99.90;;;17.41;100.00;100873.16;4154307;28;20030;-75
2021/09/26 04:52:36;;;;;;;21.25;15.43;;;17.90;99.90;;;17.41;100.00;100872.34;4153142;28;20030;-75
2021/09/26 04:54:39;;;;;;;23.77;15.48;;;17.90;99.90;;;17.42;100.00;100885.47;4153233;28;20029;-75
2021/09/26 04:56:39;;;;;;;23.50;17.23;;;17.90;99.90;;;17.44;100.00;100891.44;4153170;28;20033;-75
2021/09/26 04:58:41;;;;;;;26.33;16.63;;;17.90;99.90;;;17.42;100.00;100901.47;4152976;28;20038;-75
2021/09/26 05:00:42;;;;;;;34.88;20.25;;;17.90;99.90;;;17.43;100.00;100904.97;4153945;28;20568;-75
2021/09/26 05:02:43;;;;;;;29.15;18.10;;;17.90;99.90;;;17.40;100.00;100900.88;4136680;28;20030;-75
2021/09/26 05:04:44;;;;;;;27.77;19.67;;;17.90;99.90;;;17.50;100.00;100905.84;4153032;28;20068;-75
2021/09/26 05:06:45;;;;;;;25.48;17.67;;;17.90;99.90;;;17.53;100.00;100913.47;4152610;28;20057;-75
2021/09/26 05:08:46;;;;;;;30.15;20.05;;;18.00;99.90;;;17.45;100.00;100906.41;4155798;28;20123;-75
2021/09/26 05:10:47;;;;;;;25.90;18.95;;;17.90;99.90;;;17.35;100.00;100905.94;4164041;28;20030;-75
2021/09/26 05:12:48;;;;;;;28.42;20.15;;;17.90;99.90;;;17.42;100.00;100920.16;4153997;28;20058;-75
2021/09/26 05:14:49;;;;;;;26.98;18.55;;;18.00;99.90;;;17.33;100.00;100912.50;4152730;28;20029;-75
2021/09/26 05:16:51;;;;;;;31.92;19.65;;;17.90;99.90;;;17.37;100.00;100914.59;4136225;28;20026;-75
2021/09/26 05:18:52;;;;;;;28.52;19.42;;;17.90;99.90;;;17.30;100.00;100921.72;4152793;28;20018;-75
2021/09/26 05:20:54;;;;;;;31.30;20.15;;;17.90;99.90;;;17.24;100.00;100919.81;4152696;28;20025;-75
2021/09/26 05:22:54;;;;;;;29.67;17.70;;;17.80;99.90;;;17.32;100.00;100933.03;4153861;28;20056;-75
2021/09/26 05:24:55;;;;;;;25.73;18.17;;;17.80;99.90;;;17.31;100.00;100935.88;4152595;28;20033;-75
2021/09/26 05:26:56;;;;;;;27.17;17.77;;;17.80;99.90;;;17.27;100.00;100940.75;4152610;28;20092;-75
2021/09/26 05:28:57;;;;;;;28.77;17.88;;;17.80;99.90;;;17.30;100.00;100942.22;4152588;28;20107;-75
2021/09/26 05:30:59;;;;;;;26.25;18.08;;;17.80;99.90;;;17.33;100.00;100945.31;4152036;28;20112;-75
2021/09/26 05:33:00;;;;;;;23.58;17.30;;;17.80;99.90;;;17.30;100.00;100942.22;4151792;28;20025;-75
2021/09/26 05:35:01;;;;;;;26.60;17.67;;;17.80;99.90;;;17.29;100.00;100949.41;4153661;28;20025;-75
2021/09/26 05:37:02;;;;;;;27.48;17.35;;;17.80;99.90;;;17.27;100.00;100946.09;4152398;28;20441;-75
2021/09/26 05:39:03;;;;;;;25.58;18.45;;;17.80;99.90;;;17.25;100.00;100947.31;4152323;28;20088;-75
2021/09/26 05:41:04;;;;;;;27.58;18.23;;;17.70;99.90;;;17.30;100.00;100945.72;4152135;28;20081;-75
2021/09/26 05:43:05;;;;;;;22.05;16.95;;;17.80;99.90;;;17.26;100.00;100948.97;4152333;28;20034;-75
2021/09/26 05:45:07;;;;;;;25.88;17.08;;;17.80;99.90;;;17.30;100.00;100945.72;4155578;28;20032;-75
2021/09/26 05:47:08;;;;;;;26.52;17.20;;;17.70;99.90;;;17.33;100.00;100950.66;4135616;28;20128;-75
2021/09/26 05:49:09;;;;;;;24.48;15.43;;;17.70;99.90;;;17.34;100.00;100952.31;4152042;28;20499;-75
2021/09/26 05:51:10;;;;;;;21.55;14.98;;;17.70;99.90;;;17.31;100.00;100952.69;4153471;28;20030;-75
2021/09/26 05:53:11;;;;;;;28.58;15.88;;;17.70;99.90;;;17.25;100.00;100958.81;4153139;28;20439;-75
2021/09/26 05:55:12;;;;;;;21.52;15.52;;;17.70;99.90;;;17.17;100.00;100969.63;4153258;28;20038;-75
2021/09/26 05:57:13;;;;;;;23.70;16.70;;;17.70;99.90;;;17.19;100.00;100969.41;4152004;28;20021;-75
2021/09/26 05:59:15;;;;;;;18.65;14.43;;;17.70;99.90;;;17.21;100.00;100970.88;4153358;28;20467;-75
2021/09/26 06:01:16;;;;;;;20.58;14.18;;;17.70;99.90;;;17.09;100.00;100967.91;4151533;28;20021;-75
2021/09/26 06:03:17;;;;;;;20.83;14.38;;;17.60;99.90;;;17.10;100.00;100972.22;4151846;28;20054;-74
2021/09/26 06:05:18;;;;;;;18.98;15.07;;;17.60;99.90;;;17.19;100.00;100975.56;4152847;28;20530;-75
2021/09/26 06:07:19;;;;;;;20.63;14.73;;;17.60;99.90;;;17.26;100.00;100981.81;4153243;28;20025;-75
2021/09/26 06:09:20;;;;;;;20.98;15.93;;;17.70;99.90;;;17.08;100.00;100984.09;4159212;28;20393;-75
2021/09/26 06:11:21;;;;;;;19.58;13.35;;;17.60;99.90;;;17.01;100.00;100983.22;4158802;28;20107;-75
2021/09/26 06:13:22;;;;;;;18.92;13.35;;;17.50;99.90;;;17.00;100.00;100981.56;4151624;28;20022;-76
2021/09/26 06:15:23;;;;;;;20.02;13.77;;;17.60;99.90;;;17.03;100.00;100986.50;4152847;28;20084;-75
2021/09/26 06:17:24;;;;;;;22.33;14.38;;;17.50;99.90;;;17.00;100.00;100986.88;4151912;28;20018;-75
2021/09/26 06:19:25;;;;;;;18.02;12.32;;;17.50;99.90;;;16.96;100.00;100999.78;4153003;28;20030;-75
2021/09/26 06:21:26;;;;;;;23.77;14.35;;;17.60;99.90;;;16.99;100.00;101003.91;4151219;28;20486;-75
2021/09/26 06:23:27;;;;;;;16.95;11.98;;;17.50;99.90;;;16.95;100.00;101006.13;4153006;28;20065;-76
2021/09/26 06:25:28;;;;;;;18.17;14.52;;;17.50;99.90;;;16.91;100.00;101015.50;4152962;28;20040;-75
2021/09/26 06:27:29;;;;;;;19.67;12.43;;;17.50;99.90;;;16.91;100.00;101010.19;4152896;28;20405;-76
2021/09/26 06:29:30;;;;;;;17.70;14.10;;;17.50;99.90;;;16.99;100.00;101010.03;4151544;28;20033;-76
2021/09/26 06:31:31;;;;;;;18.42;12.90;;;17.50;99.90;;;16.94;100.00;101004.47;4151457;28;20033;-75
2021/09/26 06:33:32;;;;;;;17.15;12.43;;;17.50;99.90;;;16.94;100.00;101024.97;4152754;28;20029;-75
2021/09/26 06:35:34;;;;;;;16.92;13.57;;;17.50;99.90;;;16.88;100.00;101021.22;4151597;28;20529;-76
2021/09/26 06:37:35;;;;;;;14.35;11.68;;;17.50;99.90;;;16.90;100.00;101021.88;4152655;28;20034;-75
2021/09/26 06:39:36;;;;;;;19.75;13.55;;;17.50;99.90;;;16.89;100.00;101016.72;4151289;28;20112;-75
2021/09/26 06:41:38;;;;;;;17.85;13.60;;;17.40;99.90;;;16.97;100.00;101019.25;4151574;28;20021;-75
2021/09/26 06:43:39;;;;;;;20.50;13.50;;;17.40;99.90;;;17.00;100.00;101033.03;4158443;28;20026;-76
2021/09/26 06:45:40;;;;;;;20.17;14.52;;;17.50;99.90;;;17.01;100.00;101026.69;4140304;28;20121;-75
2021/09/26 06:47:41;;;;;;;25.60;15.65;;;17.50;99.90;;;16.96;100.00;101034.44;4152214;28;20029;-75
2021/09/26 06:49:42;;;;;;;22.65;14.48;;;17.50;99.90;;;16.93;100.00;101029.50;4152608;28;20022;-75
2021/09/26 06:51:44;;;;;;;19.50;13.48;;;17.50;99.90;;;16.93;100.00;101034.81;4144256;28;20029;-75
2021/09/26 06:53:45;;;;;;;20.23;13.50;;;17.50;99.90;;;16.99;100.00;101035.91;4138663;28;20568;-75
2021/09/26 06:55:46;;;;;;;17.98;13.40;;;17.50;99.90;;;17.02;100.00;101038.19;4166894;28;20523;-75
2021/09/26 06:57:47;;;;;;;18.27;14.55;;;17.60;99.90;;;17.10;100.00;101040.72;4167353;28;20021;-75
2021/09/26 06:59:48;;;;;;;18.55;14.15;;;17.60;99.90;;;17.09;100.00;101039.03;4168810;28;20497;-76
2021/09/26 07:01:49;;;;;;;18.23;14.23;;;17.60;99.90;;;17.17;100.00;101035.44;4167245;28;20030;-76
2021/09/26 07:03:50;;;;;;;20.60;13.25;;;17.70;99.90;;;17.17;100.00;101040.78;4167190;28;20033;-76
2021/09/26 07:05:51;;;;;;;18.95;13.27;;;17.60;99.90;;;17.12;100.00;101044.81;4167552;28;20045;-76
2021/09/26 07:07:52;;;;;;;18.02;13.13;;;17.70;99.90;;;17.20;100.00;101046.56;4151097;28;20045;-75
2021/09/26 07:09:53;;;;;;;16.10;12.90;;;17.70;99.90;;;17.26;100.00;101043.13;4167378;28;20493;-75
2021/09/26 07:11:54;;;;;;;15.93;11.52;;;17.80;99.90;;;17.29;100.00;101050.75;4135537;28;20034;-75
2021/09/26 07:13:55;;;;;;;12.48;11.18;;;17.80;99.90;;;17.28;100.00;101064.25;4156613;28;20020;-76
2021/09/26 07:15:56;;;;;;;14.50;12.05;;;17.80;99.90;;;17.26;100.00;101052.97;4167208;28;20512;-75
2021/09/26 07:17:58;;;;;;;18.67;12.02;;;17.80;99.90;;;17.29;100.00;101055.25;4167415;28;20076;-75
2021/09/26 07:19:59;;;;;;;17.50;11.98;;;17.90;99.90;;;17.26;100.00;101067.13;4150824;28;20034;-76
2021/09/26 07:22:00;;;;;;;14.82;11.90;;;17.80;99.90;;;17.26;100.00;101060.97;4168447;28;20029;-76
2021/09/26 07:24:01;;;;;;;14.80;11.00;;;17.90;99.90;;;17.28;100.00;101056.25;4167281;28;20582;-75
2021/09/26 07:26:02;;;;;;;15.98;11.45;;;17.90;99.90;;;17.28;100.00;101059.75;4167299;28;20060;-76
2021/09/26 07:28:04;;;;;;;12.75;9.23;;;17.90;99.90;;;17.37;100.00;101076.44;4168311;28;20091;-75
2021/09/26 07:30:06;;;;;;;17.17;10.75;;;17.90;99.90;;;17.36;100.00;101072.94;4167357;28;20056;-76
2021/09/26 07:32:07;;;;;;;11.98;9.93;;;17.90;99.90;;;17.32;100.00;101070.84;4167069;28;20029;-76
2021/09/26 07:34:08;;;;;;;14.15;10.48;;;17.90;99.90;;;17.36;100.00;101080.94;4170484;28;20064;-76
2021/09/26 07:36:09;;;;;;;16.77;10.98;;;17.90;99.90;;;17.36;100.00;101080.94;4170485;28;20034;-76
2021/09/26 07:38:11;;;;;;;14.88;10.55;;;18.00;99.90;;;17.39;100.00;101083.22;4171981;28;20022;-76
2021/09/26 07:40:13;;;;;;;14.15;10.90;;;18.00;99.90;;;17.45;100.00;101087.78;4170724;28;20033;-76
2021/09/26 07:42:14;;;;;;;13.95;10.30;;;18.10;99.90;;;17.52;100.00;101087.84;4170590;28;20033;-76
2021/09/26 07:44:15;;;;;;;16.48;10.88;;;18.10;99.90;;;17.61;100.00;101098.22;4170444;28;20108;-76
2021/09/26 07:46:16;;;;;;;11.93;9.80;;;18.20;99.90;;;17.64;100.00;101092.50;4154055;28;20022;-76
2021/09/26 07:48:17;;;;;;;12.88;10.23;;;18.30;99.90;;;17.74;100.00;101099.34;4155306;28;20029;-76
2021/09/26 07:50:24;;;;;;;14.73;9.90;;;18.30;99.90;;;17.75;100.00;101098.31;4155272;28;20032;-75
2021/09/26 07:52:25;;;;;;;17.05;9.80;;;18.40;99.90;;;17.69;100.00;101090.06;4138108;28;20026;-76
2021/09/26 07:54:26;;;;;;;12.65;9.60;;;18.50;99.90;;;17.74;100.00;101096.69;4155247;28;20046;-76
2021/09/26 07:56:27;;;;;;;15.20;9.77;;;18.50;99.90;;;17.83;100.00;101095.50;4137631;28;20034;-76
2021/09/26 07:58:28;;;;;;;14.95;9.82;;;18.50;99.90;;;17.82;100.00;101100.03;4153975;28;20494;-75
2021/09/26 08:00:29;;;;;;;11.43;9.85;;;18.50;99.90;;;17.63;100.00;101101.50;4153527;28;20061;-76
2021/09/26 08:02:30;;;;;;;14.77;10.10;;;18.50;99.90;;;17.69;100.00;101102.59;4155004;28;20033;-76
2021/09/26 08:04:31;;;;;;;14.70;9.35;;;18.50;99.90;;;17.58;100.00;101090.59;4153680;28;20087;-76
2021/09/26 08:06:32;;;;;;;16.27;9.73;;;18.40;99.90;;;17.50;100.00;101098.69;4154746;28;20042;-76
2021/09/26 08:08:35;;;;;;;11.05;8.18;;;18.40;99.90;;;17.54;100.00;101096.47;4154717;28;20068;-76
2021/09/26 08:10:36;;;;;;;10.57;8.53;;;18.30;99.90;;;17.61;100.00;101106.22;4165515;28;20021;-76
2021/09/26 08:12:38;;;;;;;12.57;9.15;;;18.30;99.90;;;17.55;100.00;101099.00;4153664;28;20303;-76
2021/09/26 08:14:39;;;;;;;10.25;8.20;;;18.20;99.90;;;17.61;100.00;101108.06;4153643;28;20026;-76
2021/09/26 08:16:40;;;;;;;12.07;9.00;;;18.10;99.90;;;17.61;100.00;101111.56;4153258;28;20061;-76
2021/09/26 08:18:40;;;;;;;10.50;8.95;;;18.20;99.90;;;17.62;100.00;101113.19;4153730;28;20026;-76